createdAt,value
2019-04-26T00:00:33.878Z,14.40
2019-04-26T00:01:33.850Z,14.43
2019-04-26T00:02:33.778Z,14.41
2019-04-26T00:03:33.726Z,14.32
2019-04-26T00:04:33.678Z,14.33
2019-04-26T00:05:35.696Z,14.38
2019-04-26T00:06:33.602Z,14.25
2019-04-26T00:07:33.527Z,14.29
2019-04-26T00:08:33.480Z,14.37
2019-04-26T00:09:33.429Z,14.29
2019-04-26T00:10:33.377Z,14.30
2019-04-26T00:11:33.351Z,14.28
2019-04-26T00:12:33.278Z,14.29
2019-04-26T00:13:33.230Z,14.23
2019-04-26T00:14:33.184Z,14.23
2019-04-26T00:15:33.128Z,14.15
2019-04-26T00:16:33.105Z,14.14
2019-04-26T00:17:33.053Z,14.14
2019-04-26T00:18:32.978Z,14.13
2019-04-26T00:19:32.931Z,14.14
2019-04-26T00:20:32.882Z,14.11
2019-04-26T00:21:32.829Z,14.07
2019-04-26T00:22:32.803Z,14.00
2019-04-26T00:23:32.733Z,13.97
2019-04-26T00:24:32.685Z,13.93
2019-04-26T00:25:32.637Z,13.97
2019-04-26T00:26:32.589Z,13.92
2019-04-26T00:27:32.559Z,14.04
2019-04-26T00:28:32.487Z,13.97
2019-04-26T00:29:32.433Z,13.96
2019-04-26T00:30:32.382Z,14.00
2019-04-26T00:31:32.340Z,14.03
2019-04-26T00:32:32.312Z,14.03
2019-04-26T00:33:32.234Z,14.03
2019-04-26T00:34:32.215Z,13.93
2019-04-26T00:35:32.132Z,13.92
2019-04-26T00:36:32.088Z,13.92
2019-04-26T00:37:32.064Z,13.97
2019-04-26T00:38:31.983Z,13.83
2019-04-26T00:39:32.066Z,13.92
2019-04-26T00:40:31.893Z,13.82
2019-04-26T00:41:31.838Z,13.82
2019-04-26T00:42:31.810Z,13.77
2019-04-26T00:43:31.735Z,13.68
2019-04-26T00:44:31.690Z,13.64
2019-04-26T00:45:31.632Z,13.63
2019-04-26T00:46:31.589Z,13.67
2019-04-26T00:47:31.562Z,13.60
2019-04-26T00:48:31.491Z,13.55
2019-04-26T00:49:43.160Z,13.52
2019-04-26T00:50:31.397Z,13.50
2019-04-26T00:51:31.332Z,13.45
2019-04-26T00:52:31.359Z,13.43
2019-04-26T00:53:31.235Z,13.47
2019-04-26T00:54:31.186Z,13.33
2019-04-26T00:55:31.137Z,13.24
2019-04-26T00:56:31.087Z,13.37
2019-04-26T00:57:31.071Z,13.22
2019-04-26T00:58:33.468Z,13.12
2019-04-26T00:59:30.943Z,13.12
2019-04-26T01:00:30.893Z,13.03
2019-04-26T01:01:30.837Z,13.09
2019-04-26T01:02:30.812Z,12.98
2019-04-26T01:03:30.739Z,13.09
2019-04-26T01:04:30.684Z,13.06
2019-04-26T01:05:30.635Z,12.96
2019-04-26T01:06:30.589Z,13.01
2019-04-26T01:07:30.566Z,12.93
2019-04-26T01:08:30.486Z,12.78
2019-04-26T01:09:30.434Z,12.79
2019-04-26T01:10:30.387Z,12.85
2019-04-26T01:11:30.348Z,12.76
2019-04-26T01:12:30.309Z,12.78
2019-04-26T01:13:30.235Z,12.79
2019-04-26T01:14:30.185Z,12.85
2019-04-26T01:15:30.134Z,12.79
2019-04-26T01:16:30.084Z,12.79
2019-04-26T01:17:30.056Z,12.78
2019-04-26T01:18:29.980Z,12.85
2019-04-26T01:19:29.933Z,12.73
2019-04-26T01:20:29.882Z,12.68
2019-04-26T01:21:29.830Z,12.61
2019-04-26T01:22:29.827Z,12.63
2019-04-26T01:23:29.731Z,12.65
2019-04-26T01:24:29.682Z,12.57
2019-04-26T01:25:29.632Z,12.43
2019-04-26T01:26:29.581Z,12.39
2019-04-26T01:27:29.554Z,12.38
2019-04-26T01:28:29.478Z,12.38
2019-04-26T01:29:29.428Z,12.27
2019-04-26T01:30:29.376Z,12.33
2019-04-26T01:31:29.334Z,12.20
2019-04-26T01:32:29.322Z,12.28
2019-04-26T01:33:29.230Z,12.36
2019-04-26T01:34:29.179Z,12.20
2019-04-26T01:35:29.131Z,12.20
2019-04-26T01:36:29.072Z,12.25
2019-04-26T01:37:29.027Z,12.32
2019-04-26T01:38:29.003Z,12.39
2019-04-26T01:39:28.922Z,12.46
2019-04-26T01:40:28.875Z,12.27
2019-04-26T01:41:28.826Z,12.38
2019-04-26T01:42:28.771Z,12.38
2019-04-26T01:43:28.751Z,12.45
2019-04-26T01:44:28.687Z,12.42
2019-04-26T01:45:28.618Z,12.22
2019-04-26T01:46:29.032Z,12.27
2019-04-26T01:47:28.518Z,12.35
2019-04-26T01:48:29.228Z,12.36
2019-04-26T01:49:28.420Z,12.42
2019-04-26T01:50:29.403Z,12.35
2019-04-26T01:51:28.778Z,12.38
2019-04-26T01:52:28.262Z,12.32
2019-04-26T01:53:28.778Z,12.33
2019-04-26T01:54:28.181Z,12.25
2019-04-26T01:55:29.076Z,12.20
2019-04-26T01:56:29.176Z,12.14
2019-04-26T01:57:28.013Z,12.09
2019-04-26T01:58:27.987Z,11.99
2019-04-26T01:59:27.928Z,11.96
2019-04-26T02:00:27.858Z,11.91
2019-04-26T02:01:27.810Z,11.95
2019-04-26T02:02:27.815Z,11.95
2019-04-26T02:03:27.839Z,11.97
2019-04-26T02:04:27.827Z,11.96
2019-04-26T02:05:28.031Z,11.96
2019-04-26T02:06:31.256Z,11.99
2019-04-26T02:07:28.312Z,11.97
2019-04-26T02:08:28.273Z,12.09
2019-04-26T02:09:28.403Z,12.07
2019-04-26T02:10:28.566Z,12.06
2019-04-26T02:11:27.302Z,11.95
2019-04-26T02:12:27.251Z,11.90
2019-04-26T02:13:27.223Z,11.90
2019-04-26T02:14:27.148Z,11.77
2019-04-26T02:15:27.251Z,11.80
2019-04-26T02:16:27.081Z,11.76
2019-04-26T02:17:27.271Z,11.71
2019-04-26T02:18:27.343Z,11.72
2019-04-26T02:19:27.495Z,11.61
2019-04-26T02:20:27.517Z,11.65
2019-04-26T02:21:27.872Z,11.62
2019-04-26T02:22:27.791Z,11.65
2019-04-26T02:23:27.850Z,11.63
2019-04-26T02:24:26.637Z,11.63
2019-04-26T02:25:26.587Z,11.63
2019-04-26T02:26:26.719Z,11.61
2019-04-26T02:27:26.485Z,11.61
2019-04-26T02:28:26.772Z,11.62
2019-04-26T02:29:26.822Z,11.61
2019-04-26T02:30:27.226Z,11.58
2019-04-26T02:31:27.343Z,11.58
2019-04-26T02:32:27.442Z,11.47
2019-04-26T02:33:27.435Z,11.53
2019-04-26T02:34:28.946Z,11.62
2019-04-26T02:35:27.076Z,11.61
2019-04-26T02:36:45.078Z,11.51
2019-04-26T02:37:28.171Z,11.54
2019-04-26T02:38:27.907Z,11.50
2019-04-26T02:39:26.321Z,11.53
2019-04-26T02:40:27.552Z,11.48
2019-04-26T02:41:27.505Z,11.48
2019-04-26T02:42:26.634Z,11.51
2019-04-26T02:43:27.861Z,11.46
2019-04-26T02:44:26.637Z,11.46
2019-04-26T02:45:28.332Z,11.46
2019-04-26T02:46:28.484Z,11.44
2019-04-26T02:47:26.694Z,11.43
2019-04-26T02:48:27.112Z,11.32
2019-04-26T02:49:27.500Z,11.35
2019-04-26T02:50:25.317Z,11.32
2019-04-26T02:51:25.266Z,11.23
2019-04-26T02:52:25.205Z,11.26
2019-04-26T02:53:25.182Z,11.28
2019-04-26T02:54:25.108Z,11.19
2019-04-26T02:55:25.056Z,11.30
2019-04-26T02:56:25.003Z,11.19
2019-04-26T02:57:24.950Z,11.28
2019-04-26T02:58:24.920Z,11.19
2019-04-26T02:59:24.877Z,11.25
2019-04-26T03:00:24.796Z,11.17
2019-04-26T03:01:24.742Z,11.20
2019-04-26T03:02:24.755Z,11.20
2019-04-26T03:03:24.644Z,11.10
2019-04-26T03:04:24.615Z,11.19
2019-04-26T03:05:24.548Z,11.11
2019-04-26T03:06:24.489Z,11.15
2019-04-26T03:07:24.433Z,11.14
2019-04-26T03:08:24.388Z,11.08
2019-04-26T03:09:24.359Z,11.19
2019-04-26T03:10:24.361Z,11.08
2019-04-26T03:11:24.239Z,11.10
2019-04-26T03:12:24.188Z,11.11
2019-04-26T03:13:24.129Z,11.10
2019-04-26T03:14:24.103Z,11.08
2019-04-26T03:15:24.031Z,11.12
2019-04-26T03:16:23.975Z,11.14
2019-04-26T03:17:23.917Z,11.10
2019-04-26T03:18:23.870Z,11.04
2019-04-26T03:19:23.845Z,11.07
2019-04-26T03:20:23.773Z,11.04
2019-04-26T03:21:23.714Z,11.04
2019-04-26T03:22:23.663Z,10.97
2019-04-26T03:23:23.616Z,11.01
2019-04-26T03:24:23.584Z,11.00
2019-04-26T03:25:23.511Z,11.01
2019-04-26T03:26:23.458Z,10.97
2019-04-26T03:27:23.402Z,11.03
2019-04-26T03:28:23.357Z,11.10
2019-04-26T03:29:23.327Z,11.14
2019-04-26T03:30:23.880Z,11.11
2019-04-26T03:31:23.247Z,11.15
2019-04-26T03:32:23.152Z,11.20
2019-04-26T03:33:23.460Z,11.23
2019-04-26T03:34:23.074Z,11.23
2019-04-26T03:35:23.022Z,11.22
2019-04-26T03:36:22.947Z,11.10
2019-04-26T03:37:22.899Z,11.19
2019-04-26T03:38:22.841Z,11.22
2019-04-26T03:39:22.886Z,11.26
2019-04-26T03:40:22.739Z,11.11
2019-04-26T03:41:22.692Z,11.19
2019-04-26T03:42:22.637Z,11.20
2019-04-26T03:43:22.584Z,11.17
2019-04-26T03:44:22.557Z,11.10
2019-04-26T03:45:22.479Z,11.15
2019-04-26T03:46:22.437Z,11.10
2019-04-26T03:47:22.373Z,11.14
2019-04-26T03:48:22.326Z,11.12
2019-04-26T03:49:22.310Z,11.17
2019-04-26T03:50:22.231Z,11.17
2019-04-26T03:51:22.177Z,11.15
2019-04-26T03:52:22.118Z,11.20
2019-04-26T03:53:22.068Z,11.11
2019-04-26T03:54:22.044Z,11.15
2019-04-26T03:55:21.965Z,11.25
2019-04-26T03:56:21.913Z,11.20
2019-04-26T03:57:21.868Z,11.14
2019-04-26T03:58:21.810Z,11.11
2019-04-26T03:59:21.782Z,11.14
2019-04-26T04:00:21.709Z,11.05
2019-04-26T04:01:21.658Z,10.97
2019-04-26T04:02:21.610Z,10.90
2019-04-26T04:03:21.558Z,10.92
2019-04-26T04:04:21.540Z,10.83
2019-04-26T04:05:21.455Z,10.79
2019-04-26T04:06:21.423Z,10.85
2019-04-26T04:07:36.100Z,10.85
2019-04-26T04:08:21.300Z,10.85
2019-04-26T04:09:21.270Z,10.86
2019-04-26T04:10:21.214Z,10.96
2019-04-26T04:11:21.199Z,11.04
2019-04-26T04:12:21.146Z,11.07
2019-04-26T04:13:21.041Z,11.07
2019-04-26T04:14:21.120Z,11.08
2019-04-26T04:15:20.944Z,11.19
2019-04-26T04:16:20.884Z,11.23
2019-04-26T04:17:20.836Z,11.20
2019-04-26T04:18:20.789Z,11.28
2019-04-26T04:19:20.757Z,11.30
2019-04-26T04:20:20.680Z,11.30
2019-04-26T04:21:20.625Z,11.37
2019-04-26T04:22:20.579Z,11.30
2019-04-26T04:23:20.524Z,11.33
2019-04-26T04:24:20.499Z,11.41
2019-04-26T04:25:20.419Z,11.41
2019-04-26T04:26:20.368Z,11.46
2019-04-26T04:27:20.314Z,11.43
2019-04-26T04:28:20.264Z,11.53
2019-04-26T04:29:20.214Z,11.47
2019-04-26T04:30:20.187Z,11.50
2019-04-26T04:31:20.111Z,11.59
2019-04-26T04:32:20.060Z,11.51
2019-04-26T04:33:20.007Z,11.61
2019-04-26T04:34:19.964Z,11.63
2019-04-26T04:35:19.929Z,11.59
2019-04-26T04:36:19.879Z,11.50
2019-04-26T04:37:19.804Z,11.44
2019-04-26T04:38:19.751Z,11.41
2019-04-26T04:39:19.700Z,11.47
2019-04-26T04:40:19.673Z,11.48
2019-04-26T04:41:19.597Z,11.50
2019-04-26T04:42:19.553Z,11.62
2019-04-26T04:43:19.609Z,11.59
2019-04-26T04:44:19.452Z,11.62
2019-04-26T04:45:19.422Z,11.65
2019-04-26T04:46:19.388Z,11.76
2019-04-26T04:47:24.604Z,11.71
2019-04-26T04:48:19.237Z,11.69
2019-04-26T04:49:19.203Z,11.80
2019-04-26T04:50:19.160Z,11.76
2019-04-26T04:51:19.088Z,11.88
2019-04-26T04:52:19.042Z,11.91
2019-04-26T04:53:18.986Z,11.83
2019-04-26T04:54:18.934Z,11.77
2019-04-26T04:55:18.905Z,11.76
2019-04-26T04:56:18.835Z,11.69
2019-04-26T04:57:18.782Z,11.72
2019-04-26T04:58:18.728Z,11.66
2019-04-26T04:59:18.678Z,11.74
2019-04-26T05:00:18.656Z,11.72
2019-04-26T05:01:18.577Z,11.72
2019-04-26T05:02:18.525Z,11.66
2019-04-26T05:03:18.478Z,11.68
2019-04-26T05:04:18.425Z,11.74
2019-04-26T05:05:18.392Z,11.68
2019-04-26T05:06:18.320Z,11.68
2019-04-26T05:07:18.268Z,11.69
2019-04-26T05:08:18.217Z,11.68
2019-04-26T05:09:18.169Z,11.69
2019-04-26T05:10:18.134Z,11.76
2019-04-26T05:11:18.065Z,11.77
2019-04-26T05:12:18.012Z,11.76
2019-04-26T05:13:17.960Z,11.79
2019-04-26T05:14:17.909Z,11.76
2019-04-26T05:15:17.881Z,11.79
2019-04-26T05:16:17.811Z,11.88
2019-04-26T05:17:17.755Z,11.83
2019-04-26T05:18:17.707Z,11.74
2019-04-26T05:19:17.658Z,11.88
2019-04-26T05:20:17.629Z,11.83
2019-04-26T05:21:17.553Z,11.84
2019-04-26T05:22:17.503Z,11.76
2019-04-26T05:23:17.451Z,11.69
2019-04-26T05:24:17.399Z,11.79
2019-04-26T05:25:17.373Z,11.58
2019-04-26T05:26:17.301Z,11.71
2019-04-26T05:27:17.251Z,11.72
2019-04-26T05:28:17.198Z,11.68
2019-04-26T05:29:17.145Z,11.72
2019-04-26T05:30:17.120Z,11.80
2019-04-26T05:31:17.048Z,11.80
2019-04-26T05:32:16.991Z,11.72
2019-04-26T05:33:16.942Z,11.84
2019-04-26T05:34:16.890Z,11.88
2019-04-26T05:35:16.864Z,11.95
2019-04-26T05:36:16.815Z,11.87
2019-04-26T05:37:16.745Z,11.88
2019-04-26T05:38:18.716Z,11.86
2019-04-26T05:39:16.636Z,11.87
2019-04-26T05:40:16.610Z,11.86
2019-04-26T05:41:16.542Z,11.96
2019-04-26T05:42:16.486Z,11.97
2019-04-26T05:43:16.428Z,11.96
2019-04-26T05:44:16.405Z,12.00
2019-04-26T05:45:16.354Z,12.07
2019-04-26T05:46:16.301Z,12.07
2019-04-26T05:47:16.278Z,12.10
2019-04-26T05:48:16.178Z,12.10
2019-04-26T05:49:16.128Z,12.24
2019-04-26T05:50:16.071Z,12.35
2019-04-26T05:51:16.048Z,12.25
2019-04-26T05:52:15.974Z,12.30
2019-04-26T05:53:15.922Z,12.30
2019-04-26T05:54:15.871Z,12.33
2019-04-26T05:55:15.819Z,12.33
2019-04-26T05:56:15.799Z,12.28
2019-04-26T05:57:15.727Z,12.35
2019-04-26T05:58:15.669Z,12.35
2019-04-26T05:59:15.618Z,12.43
2019-04-26T06:00:15.569Z,12.40
2019-04-26T06:01:15.542Z,12.38
2019-04-26T06:02:15.484Z,12.43
2019-04-26T06:03:15.416Z,12.38
2019-04-26T06:04:15.368Z,12.42
2019-04-26T06:05:15.318Z,12.40
2019-04-26T06:06:15.290Z,12.46
2019-04-26T06:07:15.214Z,12.54
2019-04-26T06:08:15.169Z,12.60
2019-04-26T06:09:15.116Z,12.51
2019-04-26T06:10:15.064Z,12.54
2019-04-26T06:11:15.038Z,12.51
2019-04-26T06:12:14.960Z,12.46
2019-04-26T06:13:14.910Z,12.39
2019-04-26T06:14:14.858Z,12.38
2019-04-26T06:15:14.811Z,12.45
2019-04-26T06:16:14.785Z,12.51
2019-04-26T06:17:14.710Z,12.54
2019-04-26T06:18:14.660Z,12.55
2019-04-26T06:19:14.605Z,12.53
2019-04-26T06:20:22.581Z,12.63
2019-04-26T06:21:14.536Z,12.61
2019-04-26T06:22:14.456Z,12.61
2019-04-26T06:23:14.405Z,12.69
2019-04-26T06:24:14.362Z,12.71
2019-04-26T06:25:14.315Z,12.65
2019-04-26T06:26:14.283Z,12.72
2019-04-26T06:27:14.487Z,12.69
2019-04-26T06:28:14.151Z,12.68
2019-04-26T06:29:14.105Z,12.73
2019-04-26T06:30:14.053Z,12.80
2019-04-26T06:31:14.026Z,12.78
2019-04-26T06:32:13.955Z,12.79
2019-04-26T06:33:15.165Z,12.76
2019-04-26T06:34:13.852Z,12.85
2019-04-26T06:35:13.802Z,12.93
2019-04-26T06:36:13.837Z,12.88
2019-04-26T06:37:13.701Z,12.91
2019-04-26T06:38:13.650Z,12.94
2019-04-26T06:39:13.599Z,12.94
2019-04-26T06:40:13.548Z,12.96
2019-04-26T06:41:13.524Z,12.93
2019-04-26T06:42:13.449Z,12.94
2019-04-26T06:43:13.402Z,12.96
2019-04-26T06:44:13.349Z,12.90
2019-04-26T06:45:13.299Z,12.93
2019-04-26T06:46:13.275Z,12.90
2019-04-26T06:47:13.200Z,12.96
2019-04-26T06:48:13.148Z,12.93
2019-04-26T06:49:13.096Z,13.03
2019-04-26T06:50:13.049Z,12.94
2019-04-26T06:51:24.170Z,12.97
2019-04-26T06:52:12.972Z,12.94
2019-04-26T06:53:12.895Z,13.09
2019-04-26T06:54:12.845Z,13.05
2019-04-26T06:55:12.797Z,13.06
2019-04-26T06:56:12.746Z,13.13
2019-04-26T06:57:15.180Z,13.12
2019-04-26T06:58:13.111Z,13.11
2019-04-26T06:59:12.601Z,13.09
2019-04-26T07:00:12.543Z,12.87
2019-04-26T07:01:12.497Z,12.93
2019-04-26T07:02:12.476Z,12.88
2019-04-26T07:03:12.395Z,12.93
2019-04-26T07:04:12.706Z,12.78
2019-04-26T07:05:15.069Z,12.73
2019-04-26T07:06:12.277Z,12.85
2019-04-26T07:07:13.329Z,12.88
2019-04-26T07:08:12.710Z,12.75
2019-04-26T07:09:12.093Z,12.78
2019-04-26T07:10:12.038Z,12.94
2019-04-26T07:11:12.011Z,12.91
2019-04-26T07:12:11.963Z,12.88
2019-04-26T07:13:14.736Z,12.94
2019-04-26T07:14:11.837Z,12.96
2019-04-26T07:15:12.139Z,12.91
2019-04-26T07:16:22.411Z,12.88
2019-04-26T07:17:12.242Z,12.79
2019-04-26T07:18:12.761Z,12.73
2019-04-26T07:19:11.587Z,12.78
2019-04-26T07:20:11.655Z,12.76
2019-04-26T07:21:11.487Z,12.78
2019-04-26T07:22:11.461Z,12.83
2019-04-26T07:23:12.585Z,12.80
2019-04-26T07:24:11.340Z,12.76
2019-04-26T07:25:11.284Z,12.80
2019-04-26T07:26:11.238Z,12.78
2019-04-26T07:27:11.216Z,12.76
2019-04-26T07:28:12.419Z,12.96
2019-04-26T07:29:11.312Z,12.88
2019-04-26T07:30:12.026Z,12.88
2019-04-26T07:31:11.000Z,12.97
2019-04-26T07:32:11.559Z,12.87
2019-04-26T07:33:10.880Z,12.87
2019-04-26T07:34:11.493Z,12.87
2019-04-26T07:35:10.783Z,12.88
2019-04-26T07:36:11.933Z,12.90
2019-04-26T07:37:11.389Z,12.87
2019-04-26T07:38:11.088Z,12.83
2019-04-26T07:39:19.667Z,12.78
2019-04-26T07:40:11.436Z,12.76
2019-04-26T07:41:11.427Z,12.78
2019-04-26T07:42:11.507Z,12.76
2019-04-26T07:43:10.442Z,12.90
2019-04-26T07:44:10.328Z,12.85
2019-04-26T07:45:10.332Z,12.85
2019-04-26T07:46:10.645Z,12.93
2019-04-26T07:47:11.087Z,12.90
2019-04-26T07:48:10.126Z,13.00
2019-04-26T07:49:10.276Z,12.90
2019-04-26T07:50:10.025Z,12.90
2019-04-26T07:51:09.972Z,12.94
2019-04-26T07:52:10.537Z,12.88
2019-04-26T07:53:09.861Z,12.91
2019-04-26T07:54:09.828Z,12.98
2019-04-26T07:55:10.799Z,12.96
2019-04-26T07:56:09.720Z,12.91
2019-04-26T07:57:10.746Z,12.93
2019-04-26T07:58:09.622Z,12.88
2019-04-26T07:59:10.601Z,12.78
2019-04-26T08:00:09.518Z,12.79
2019-04-26T08:01:09.914Z,12.80
2019-04-26T08:02:09.439Z,12.82
2019-04-26T08:03:09.368Z,12.78
2019-04-26T08:04:09.502Z,12.83
2019-04-26T08:05:09.554Z,12.76
2019-04-26T08:06:09.629Z,12.75
2019-04-26T08:07:10.287Z,12.75
2019-04-26T08:08:09.115Z,12.69
2019-04-26T08:09:10.795Z,12.64
2019-04-26T08:10:09.957Z,12.61
2019-04-26T08:11:08.965Z,12.51
2019-04-26T08:12:09.981Z,12.54
2019-04-26T08:13:09.991Z,12.55
2019-04-26T08:14:08.814Z,12.43
2019-04-26T08:15:09.047Z,12.38
2019-04-26T08:16:08.743Z,12.43
2019-04-26T08:17:08.660Z,12.40
2019-04-26T08:18:08.659Z,12.35
2019-04-26T08:19:08.564Z,12.25
2019-04-26T08:20:10.672Z,12.21
2019-04-26T08:21:13.652Z,12.22
2019-04-26T08:22:17.927Z,12.14
2019-04-26T08:23:14.485Z,12.10
2019-04-26T08:24:08.304Z,12.10
2019-04-26T08:25:08.310Z,11.96
2019-04-26T08:26:09.140Z,11.96
2019-04-26T08:27:16.066Z,11.91
2019-04-26T08:28:08.430Z,11.96
2019-04-26T08:29:08.485Z,11.91
2019-04-26T08:30:12.850Z,11.96
2019-04-26T08:31:08.958Z,11.90
2019-04-26T08:32:08.855Z,12.00
2019-04-26T08:33:11.358Z,12.03
2019-04-26T08:34:08.713Z,12.09
2019-04-26T08:35:14.374Z,12.00
2019-04-26T08:36:08.759Z,12.10
2019-04-26T08:37:08.089Z,12.14
2019-04-26T08:38:13.713Z,12.09
2019-04-26T08:39:08.267Z,12.22
2019-04-26T08:40:07.479Z,12.06
2019-04-26T08:41:08.585Z,12.21
2019-04-26T08:42:11.893Z,12.18
2019-04-26T08:43:07.360Z,12.24
2019-04-26T08:44:08.619Z,12.10
2019-04-26T08:45:10.105Z,12.09
2019-04-26T08:46:10.420Z,12.06
2019-04-26T08:47:15.103Z,12.06
2019-04-26T08:48:07.902Z,12.07
2019-04-26T08:49:07.012Z,12.14
2019-04-26T08:50:09.650Z,12.02
2019-04-26T08:51:06.923Z,12.13
2019-04-26T08:52:14.176Z,12.07
2019-04-26T08:53:06.832Z,12.06
2019-04-26T08:54:06.766Z,12.10
2019-04-26T08:55:06.721Z,12.13
2019-04-26T08:56:06.666Z,12.13
2019-04-26T08:57:06.633Z,12.14
2019-04-26T08:58:06.581Z,12.09
2019-04-26T08:59:06.506Z,12.14
2019-04-26T09:00:06.459Z,12.13
2019-04-26T09:01:06.407Z,12.06
2019-04-26T09:02:06.348Z,12.09
2019-04-26T09:03:11.666Z,12.14
2019-04-26T09:04:06.254Z,12.10
2019-04-26T09:05:06.209Z,12.10
2019-04-26T09:06:06.157Z,12.07
2019-04-26T09:07:06.165Z,12.14
2019-04-26T09:08:06.072Z,12.13
2019-04-26T09:09:05.996Z,12.14
2019-04-26T09:10:11.212Z,12.07
2019-04-26T09:11:05.894Z,12.09
2019-04-26T09:12:08.199Z,12.13
2019-04-26T09:13:05.819Z,12.09
2019-04-26T09:14:05.740Z,12.13
2019-04-26T09:15:05.688Z,12.14
2019-04-26T09:16:05.669Z,12.09
2019-04-26T09:17:05.586Z,12.25
2019-04-26T09:18:06.128Z,12.21
2019-04-26T09:19:05.481Z,12.18
2019-04-26T09:20:07.837Z,12.18
2019-04-26T09:21:05.374Z,12.17
2019-04-26T09:22:12.879Z,12.24
2019-04-26T09:23:05.294Z,12.13
2019-04-26T09:24:08.090Z,12.10
2019-04-26T09:25:05.170Z,12.09
2019-04-26T09:26:08.664Z,12.05
2019-04-26T09:27:05.071Z,12.07
2019-04-26T09:28:05.052Z,12.10
2019-04-26T09:29:04.969Z,12.09
2019-04-26T09:30:06.233Z,12.06
2019-04-26T09:31:04.861Z,12.15
2019-04-26T09:32:04.819Z,12.15
2019-04-26T09:33:04.811Z,12.06
2019-04-26T09:34:06.442Z,12.22
2019-04-26T09:35:04.664Z,12.24
2019-04-26T09:36:04.609Z,12.22
2019-04-26T09:37:04.569Z,12.21
2019-04-26T09:38:04.510Z,12.22
2019-04-26T09:39:08.288Z,12.10
2019-04-26T09:40:10.667Z,12.09
2019-04-26T09:41:04.356Z,12.03
2019-04-26T09:42:05.948Z,12.09
2019-04-26T09:43:04.255Z,12.06
2019-04-26T09:44:04.228Z,12.05
2019-04-26T09:45:04.149Z,12.00
2019-04-26T09:46:04.095Z,11.87
2019-04-26T09:47:04.050Z,11.90
2019-04-26T09:48:03.998Z,11.68
2019-04-26T09:49:06.932Z,11.63
2019-04-26T09:50:03.894Z,11.80
2019-04-26T09:51:03.845Z,11.62
2019-04-26T09:52:03.788Z,11.72
2019-04-26T09:53:03.732Z,11.81
2019-04-26T09:54:03.709Z,11.90
2019-04-26T09:55:03.641Z,11.90
2019-04-26T09:56:03.587Z,12.02
2019-04-26T09:57:03.531Z,12.05
2019-04-26T09:58:03.480Z,12.09
2019-04-26T09:59:05.584Z,12.13
2019-04-26T10:00:03.381Z,12.13
2019-04-26T10:01:06.066Z,12.24
2019-04-26T10:02:03.277Z,12.22
2019-04-26T10:03:05.401Z,12.36
2019-04-26T10:04:03.200Z,12.35
2019-04-26T10:05:03.119Z,12.40
2019-04-26T10:06:03.067Z,12.30
2019-04-26T10:07:04.070Z,12.38
2019-04-26T10:08:02.975Z,12.39
2019-04-26T10:09:02.943Z,12.36
2019-04-26T10:10:02.871Z,12.43
2019-04-26T10:11:05.749Z,12.36
2019-04-26T10:12:02.769Z,12.36
2019-04-26T10:13:02.718Z,12.40
2019-04-26T10:14:02.692Z,12.38
2019-04-26T10:15:02.614Z,12.39
2019-04-26T10:16:02.931Z,12.40
2019-04-26T10:17:02.516Z,12.25
2019-04-26T10:18:02.465Z,12.28
2019-04-26T10:19:02.435Z,12.39
2019-04-26T10:20:02.362Z,12.43
2019-04-26T10:21:02.311Z,12.43
2019-04-26T10:22:02.259Z,12.40
2019-04-26T10:23:02.207Z,12.47
2019-04-26T10:24:02.176Z,12.42
2019-04-26T10:25:06.825Z,12.35
2019-04-26T10:26:02.060Z,12.39
2019-04-26T10:27:03.410Z,12.45
2019-04-26T10:28:01.957Z,12.33
2019-04-26T10:29:01.923Z,12.38
2019-04-26T10:30:07.786Z,12.39
2019-04-26T10:31:01.806Z,12.50
2019-04-26T10:32:01.790Z,12.38
2019-04-26T10:33:02.176Z,12.36
2019-04-26T10:34:01.676Z,12.38
2019-04-26T10:35:01.603Z,12.43
2019-04-26T10:36:01.554Z,12.38
2019-04-26T10:37:05.793Z,12.38
2019-04-26T10:38:01.462Z,12.50
2019-04-26T10:39:01.422Z,12.51
2019-04-26T10:40:01.338Z,12.57
2019-04-26T10:41:01.291Z,12.50
2019-04-26T10:42:01.244Z,12.36
2019-04-26T10:43:01.198Z,12.42
2019-04-26T10:44:01.160Z,12.45
2019-04-26T10:45:01.093Z,12.42
2019-04-26T10:46:01.042Z,12.47
2019-04-26T10:47:04.414Z,12.64
2019-04-26T10:48:00.939Z,12.58
2019-04-26T10:49:08.567Z,12.54
2019-04-26T10:50:00.856Z,12.60
2019-04-26T10:51:03.350Z,12.63
2019-04-26T10:52:00.742Z,12.75
2019-04-26T10:53:00.690Z,12.78
2019-04-26T10:54:01.612Z,12.80
2019-04-26T10:55:01.070Z,12.78
2019-04-26T10:56:00.541Z,12.83
2019-04-26T10:57:00.488Z,12.80
2019-04-26T10:58:00.445Z,12.83
2019-04-26T10:59:00.393Z,12.76
2019-04-26T11:00:00.359Z,13.00
2019-04-26T11:01:00.287Z,12.93
2019-04-26T11:02:00.238Z,13.09
2019-04-26T11:03:04.337Z,13.06
2019-04-26T11:04:00.136Z,13.11
2019-04-26T11:05:00.109Z,13.13
2019-04-26T11:06:00.034Z,13.11
2019-04-26T11:07:01.996Z,13.13
2019-04-26T11:07:59.936Z,13.09
2019-04-26T11:08:59.884Z,12.91
2019-04-26T11:10:02.826Z,12.94
2019-04-26T11:10:59.789Z,12.79
2019-04-26T11:11:59.734Z,12.69
2019-04-26T11:12:59.683Z,12.68
2019-04-26T11:13:59.636Z,12.65
2019-04-26T11:14:59.611Z,12.72
2019-04-26T11:16:02.482Z,12.75
2019-04-26T11:16:59.489Z,12.79
2019-04-26T11:17:59.430Z,12.88
2019-04-26T11:19:01.107Z,12.90
2019-04-26T11:19:59.354Z,12.98
2019-04-26T11:20:59.309Z,12.91
2019-04-26T11:21:59.233Z,12.98
2019-04-26T11:22:59.185Z,13.01
2019-04-26T11:23:59.138Z,13.03
2019-04-26T11:24:59.108Z,13.12
2019-04-26T11:26:01.627Z,13.21
2019-04-26T11:26:58.980Z,13.19
2019-04-26T11:27:58.931Z,13.24
2019-04-26T11:28:58.876Z,13.29
2019-04-26T11:29:59.287Z,13.15
2019-04-26T11:30:58.797Z,13.21
2019-04-26T11:32:02.814Z,13.11
2019-04-26T11:32:58.682Z,13.06
2019-04-26T11:34:05.120Z,13.06
2019-04-26T11:35:00.275Z,12.88
2019-04-26T11:35:58.547Z,12.96
2019-04-26T11:36:58.550Z,12.88
2019-04-26T11:37:58.425Z,12.98
2019-04-26T11:39:01.393Z,12.91
2019-04-26T11:39:58.357Z,12.94
2019-04-26T11:41:06.013Z,12.90
2019-04-26T11:41:58.229Z,12.91
2019-04-26T11:42:58.178Z,12.97
2019-04-26T11:43:58.130Z,13.08
2019-04-26T11:45:05.916Z,13.11
2019-04-26T11:46:04.136Z,12.97
2019-04-26T11:46:59.290Z,13.03
2019-04-26T11:47:57.935Z,12.96
2019-04-26T11:48:59.268Z,12.94
2019-04-26T11:49:57.884Z,12.94
2019-04-26T11:50:57.780Z,12.91
2019-04-26T11:51:58.619Z,12.96
2019-04-26T11:52:57.670Z,12.91
2019-04-26T11:53:57.624Z,12.90
2019-04-26T11:54:57.598Z,12.80
2019-04-26T11:56:00.234Z,12.65
2019-04-26T11:56:57.474Z,12.78
2019-04-26T11:57:57.431Z,12.79
2019-04-26T11:58:58.385Z,12.65
2019-04-26T11:59:57.348Z,12.71
2019-04-26T12:00:57.273Z,12.80
2019-04-26T12:01:57.223Z,12.79
2019-04-26T12:02:57.152Z,12.85
2019-04-26T12:03:59.433Z,12.94
2019-04-26T12:04:59.591Z,12.91
2019-04-26T12:05:57.023Z,12.97
2019-04-26T12:06:56.976Z,13.11
2019-04-26T12:07:56.921Z,13.08
2019-04-26T12:08:57.190Z,13.13
2019-04-26T12:09:56.865Z,13.21
2019-04-26T12:10:56.777Z,13.33
2019-04-26T12:12:04.386Z,13.29
2019-04-26T12:13:05.625Z,13.26
2019-04-26T12:13:59.479Z,13.27
2019-04-26T12:14:56.575Z,13.24
2019-04-26T12:15:56.548Z,13.13
2019-04-26T12:16:59.711Z,13.12
2019-04-26T12:17:58.637Z,13.18
2019-04-26T12:18:56.366Z,13.18
2019-04-26T12:19:56.318Z,13.31
2019-04-26T12:20:57.130Z,13.24
2019-04-26T12:21:56.221Z,13.27
2019-04-26T12:22:56.169Z,13.21
2019-04-26T12:23:56.421Z,13.24
2019-04-26T12:24:56.068Z,13.16
2019-04-26T12:25:56.042Z,13.27
2019-04-26T12:26:57.483Z,13.27
2019-04-26T12:27:55.969Z,13.46
2019-04-26T12:28:55.866Z,13.43
2019-04-26T12:29:55.815Z,13.43
2019-04-26T12:30:58.445Z,13.38
2019-04-26T12:31:55.722Z,13.37
2019-04-26T12:32:55.676Z,13.24
2019-04-26T12:33:55.619Z,13.26
2019-04-26T12:34:55.566Z,13.29
2019-04-26T12:35:57.189Z,13.33
2019-04-26T12:36:55.468Z,13.22
2019-04-26T12:37:55.857Z,13.05
2019-04-26T12:38:58.160Z,12.97
2019-04-26T12:39:55.319Z,12.87
2019-04-26T12:40:55.292Z,12.87
2019-04-26T12:41:55.211Z,12.91
2019-04-26T12:42:55.165Z,12.93
2019-04-26T12:43:59.637Z,12.90
2019-04-26T12:44:55.066Z,13.00
2019-04-26T12:45:55.034Z,12.91
2019-04-26T12:46:54.967Z,12.91
2019-04-26T12:47:54.918Z,12.94
2019-04-26T12:48:54.865Z,12.97
2019-04-26T12:49:58.940Z,12.90
2019-04-26T12:50:54.789Z,12.78
2019-04-26T12:51:54.717Z,12.79